Malaviya Twenty — AUEV — position and weather

sailwx.info

Track history (hours):
 
Tides and Currents Weather Stations Pressure Air Temp Water Temp Dewpoint Dewpoint Depression Visibility Wind Speed Wind Dir Waves Ship Positions

Malaviya Twenty

Last reported at 2014-Sep-30 13:31 UTC. Time now 2014-Sep-30 14:03 UTC.
Position N 52°35' E 001°44'.

Length 72 m; draft 4.4 m.

Type: Ship. MMSI: 419504000.

Date/timePositionNaut miles runAvg speedWind from/ knotsBaromVisibWave heightAir tempDewpointWater temp
2014-Sep-30 13:31N 52°35' E 001°44'0 0.0
2014-Sep-30 12:31N 52°35' E 001°44'0 0.2
2014-Sep-30 11:31N 52°36' E 001°44'0 0.0
2014-Sep-30 10:31N 52°36' E 001°44'0 0.0
2014-Sep-30 09:31N 52°36' E 001°44'0 0.0
2014-Sep-30 08:31N 52°36' E 001°44'0 0.0
2014-Sep-30 07:31N 52°36' E 001°44'0 0.0
2014-Sep-30 06:31N 52°36' E 001°44'0 0.0
2014-Sep-30 05:31N 52°36' E 001°44'0 0.0
2014-Sep-30 04:31N 52°36' E 001°44'0 0.0
2014-Sep-30 03:31N 52°36' E 001°44'0 0.0
2014-Sep-30 02:31N 52°36' E 001°44'0 0.0
2014-Sep-30 01:31N 52°36' E 001°44'0 0.0
2014-Sep-30 00:31N 52°36' E 001°44'0 0.0
2014-Sep-29 23:31N 52°36' E 001°44'0 0.0
2014-Sep-29 22:31N 52°36' E 001°44'0 0.0
2014-Sep-29 21:34N 52°36' E 001°44'0 0.0
2014-Sep-29 20:33N 52°36' E 001°44'0 0.0
2014-Sep-29 19:33N 52°36' E 001°44'0 0.0
2014-Sep-29 18:33N 52°36' E 001°44'0 0.0
2014-Sep-29 17:33N 52°36' E 001°44'0 0.0
2014-Sep-29 16:33N 52°36' E 001°44'0 0.0
2014-Sep-29 15:33N 52°36' E 001°44'0 0.0
2014-Sep-29 14:33N 52°36' E 001°44'0 0.0
2014-Sep-29 13:33N 52°36' E 001°44'0 0.0
2014-Sep-29 12:33N 52°36' E 001°44'0 0.0
2014-Sep-29 11:33N 52°36' E 001°44'0 0.0
2014-Sep-29 10:33N 52°36' E 001°44'0 0.0
2014-Sep-29 09:33N 52°36' E 001°44'0 0.0
2014-Sep-29 08:33N 52°36' E 001°44'0 0.0
2014-Sep-29 07:33N 52°36' E 001°44'0 0.0
2014-Sep-29 06:33N 52°36' E 001°44'0 0.0
2014-Sep-29 05:33N 52°36' E 001°44'0 0.0
2014-Sep-29 04:33N 52°36' E 001°44'0 0.0
2014-Sep-29 03:33N 52°36' E 001°44'0 0.0
2014-Sep-29 02:33N 52°36' E 001°44'0 0.0
2014-Sep-29 01:33N 52°36' E 001°44'0 0.0
2014-Sep-29 00:33N 52°36' E 001°44'0 0.0
2014-Sep-28 23:33N 52°36' E 001°44'0 0.0
2014-Sep-28 22:33N 52°36' E 001°44'0 0.0
2014-Sep-28 21:33N 52°36' E 001°44'0 0.0
2014-Sep-28 20:33N 52°36' E 001°44'1 1.2
2014-Sep-28 19:34N 52°35' E 001°44'6 5.9
2014-Sep-28 18:33N 52°40' E 001°46'9 9.3
2014-Sep-28 17:33N 52°48' E 001°54'10 9.8
2014-Sep-28 16:33N 52°55' E 002°05'9 8.8
2014-Sep-28 15:34N 53°03' E 002°14'0 0.4
2014-Sep-28 14:33N 53°02' E 002°14'2 1.6
2014-Sep-28 13:34N 53°01' E 002°14'1 1.1
2014-Sep-28 12:33N 53°02' E 002°14'1 1.3
2014-Sep-28 11:33N 53°00' E 002°14'8 7.6
2014-Sep-28 10:34N 53°02' E 002°26'5 5.1
2014-Sep-28 09:34N 53°05' E 002°33'0 0.0
2014-Sep-28 08:33N 53°05' E 002°33'0 0.4
2014-Sep-28 07:33N 53°05' E 002°33'2 1.6
2014-Sep-28 06:15N 53°04' E 002°29'1 2.1
2014-Sep-28 05:34N 53°03' E 002°28'1 1.4
2014-Sep-28 04:33N 53°04' E 002°29'0 0.2
2014-Sep-28 03:33N 53°04' E 002°30'0 0.1
2014-Sep-28 02:34N 53°04' E 002°30'0 0.4
2014-Sep-28 01:33N 53°04' E 002°30'1 1.1
2014-Sep-28 00:34N 53°03' E 002°29'7 7.5
2014-Sep-27 23:33N 52°60' E 002°18'4 3.8
2014-Sep-27 22:33N 53°03' E 002°14'0 0.0
2014-Sep-27 21:34N 53°03' E 002°14'0 0.0
2014-Sep-27 20:33N 53°03' E 002°14'1 0.8
2014-Sep-27 19:30N 53°02' E 002°14'2 2.2
2014-Sep-27 18:29N 53°00' E 002°14'0 0.5
2014-Sep-27 17:33N 53°00' E 002°14'3 2.6
2014-Sep-27 16:33N 53°02' E 002°10'2 1.7
2014-Sep-27 15:33N 53°02' E 002°07'1 1.4
2014-Sep-27 14:34N 53°02' E 002°09'1 1.1
2014-Sep-27 13:34N 53°02' E 002°11'2 1.8
2014-Sep-27 12:34N 53°04' E 002°13'4 3.6
2014-Sep-27 11:33N 53°00' E 002°14'11 8.6
2014-Sep-27 10:19N 53°04' E 002°30'2 2.1
2014-Sep-27 09:28N 53°05' E 002°33'0 0.0
2014-Sep-27 08:17N 53°05' E 002°33'0 0.4
2014-Sep-27 07:28N 53°05' E 002°32'1 0.9
2014-Sep-27 06:30N 53°06' E 002°32'2 1.3
2014-Sep-27 05:20N 53°04' E 002°31'6 8.1
2014-Sep-27 04:33N 53°00' E 002°23'5 5.4
2014-Sep-27 03:33N 52°60' E 002°14'0 0.3
2014-Sep-27 02:33N 53°00' E 002°14'1 0.5
2014-Sep-27 01:29N 53°01' E 002°14'1 1.1
2014-Sep-27 00:34N 53°02' E 002°14'1 1.3
2014-Sep-26 23:34N 53°03' E 002°14'0 0.0
2014-Sep-26 22:33N 53°03' E 002°14'0 0.0
2014-Sep-26 21:31N 53°03' E 002°14'0 0.0
2014-Sep-26 20:21N 53°03' E 002°14'0 0.0
2014-Sep-26 19:33N 53°03' E 002°14'1 0.3
2014-Sep-26 16:06N 53°02' E 002°14'0 0.8
2014-Sep-26 15:33N 53°02' E 002°14'1 1.1
2014-Sep-26 14:33N 53°01' E 002°14'1 0.7
2014-Sep-26 13:33N 53°01' E 002°14'1 1.3
2014-Sep-26 12:33N 53°03' E 002°15'1 1.1
2014-Sep-26 11:33N 53°04' E 002°15'2 0.3
2014-Sep-26 05:29N 53°02' E 002°14'0 0.0
2014-Sep-26 02:32N 53°02' E 002°14'10 5.2
2014-Sep-26 00:33N 52°54' E 002°03'10 9.8
2014-Sep-25 23:34N 52°47' E 001°53'9 9.1
2014-Sep-25 22:34N 52°39' E 001°46'3 3.4
2014-Sep-25 21:33N 52°35' E 001°44'0 0.0
2014-Sep-25 20:33N 52°35' E 001°44'0 0.0
2014-Sep-25 19:33N 52°35' E 001°44'0 0.0
2014-Sep-25 18:33N 52°35' E 001°44'0 0.0
2014-Sep-25 17:33N 52°35' E 001°44'1 1.3
2014-Sep-25 16:33N 52°35' E 001°45'4 4.0
2014-Sep-25 15:33N 52°39' E 001°46'7 6.8
2014-Sep-25 14:33N 52°45' E 001°44'8 7.6
2014-Sep-25 13:33N 52°52' E 001°38'8 7.7
2014-Sep-25 12:33N 52°58' E 001°31'8 7.5
2014-Sep-25 11:33N 53°06' E 001°28'10 0.3
2014-Sep-24 04:11N 53°16' E 001°29'5 8.7
2014-Sep-24 03:33N 53°10' E 001°28'9 8.9
2014-Sep-24 02:33N 53°01' E 001°29'9 9.0
2014-Sep-24 01:33N 52°54' E 001°37'10 9.7
2014-Sep-24 00:33N 52°45' E 001°45'1110.8
2014-Sep-23 23:34N 52°35' E 001°46'2 1.5
2014-Sep-23 22:33N 52°36' E 001°44'0 0.0
2014-Sep-23 21:33N 52°36' E 001°44'0 0.0
2014-Sep-23 20:33N 52°36' E 001°44'0 0.0
2014-Sep-23 19:33N 52°36' E 001°44'0 0.0
2014-Sep-23 18:33N 52°36' E 001°44'0 0.0
2014-Sep-23 17:33N 52°36' E 001°44'0 0.0
2014-Sep-23 16:33N 52°36' E 001°44'0 0.0
2014-Sep-23 15:33N 52°36' E 001°44'0 0.0
2014-Sep-23 14:33N 52°36' E 001°44'1 1.0
2014-Sep-23 13:33N 52°35' E 001°44'5 4.6
2014-Sep-23 12:33N 52°39' E 001°46'8 7.8
2014-Sep-23 11:33N 52°46' E 001°52'10 9.6
2014-Sep-23 10:33N 52°54' E 002°01'12 9.3
2014-Sep-23 09:19N 53°02' E 002°14'1 1.4
2014-Sep-23 08:33N 53°03' E 002°14'0 0.0
2014-Sep-23 07:33N 53°03' E 002°14'0 0.0
2014-Sep-23 06:29N 53°03' E 002°14'0 0.3
2014-Sep-23 05:13N 53°03' E 002°14'1 1.5
2014-Sep-23 04:31N 53°02' E 002°14'1 0.8
2014-Sep-23 03:31N 53°02' E 002°14'3 2.3
2014-Sep-23 02:23N 52°60' E 002°14'1 0.8
2014-Sep-23 01:31N 53°00' E 002°14'1 0.9
2014-Sep-23 00:33N 53°01' E 002°14'  
2014-Sep-20 18:03N 53°03' E 002°14'0 0.0
2014-Sep-20 17:27N 53°03' E 002°14'0 0.0
2014-Sep-20 16:33N 53°03' E 002°14'1 0.5
2014-Sep-20 14:24N 53°02' E 002°15'0 0.3
2014-Sep-20 13:33N 53°02' E 002°14'  
Track history (hours):
 
Tides and Currents Weather Stations Pressure Air Temp Water Temp Dewpoint Dewpoint Depression Visibility Wind Speed Wind Dir Waves Ship Positions

Malaviya Twenty

Last reported at 2014-Sep-30 13:31 UTC. Time now 2014-Sep-30 14:03 UTC.
Position N 52°35' E 001°44'.

Length 72 m; draft 4.4 m.

Type: Ship. MMSI: 419504000.

Date/timePositionNaut miles runAvg speedWind from/ knotsBaromVisibWave heightAir tempDewpointWater temp
2014-Sep-30 13:31N 52°35' E 001°44'0 0.0
2014-Sep-30 12:31N 52°35' E 001°44'0 0.2
2014-Sep-30 11:31N 52°36' E 001°44'0 0.0
2014-Sep-30 10:31N 52°36' E 001°44'0 0.0
2014-Sep-30 09:31N 52°36' E 001°44'0 0.0
2014-Sep-30 08:31N 52°36' E 001°44'0 0.0
2014-Sep-30 07:31N 52°36' E 001°44'0 0.0
2014-Sep-30 06:31N 52°36' E 001°44'0 0.0
2014-Sep-30 05:31N 52°36' E 001°44'0 0.0
2014-Sep-30 04:31N 52°36' E 001°44'0 0.0
2014-Sep-30 03:31N 52°36' E 001°44'0 0.0
2014-Sep-30 02:31N 52°36' E 001°44'0 0.0
2014-Sep-30 01:31N 52°36' E 001°44'0 0.0
2014-Sep-30 00:31N 52°36' E 001°44'0 0.0
2014-Sep-29 23:31N 52°36' E 001°44'0 0.0
2014-Sep-29 22:31N 52°36' E 001°44'0 0.0
2014-Sep-29 21:34N 52°36' E 001°44'0 0.0
2014-Sep-29 20:33N 52°36' E 001°44'0 0.0
2014-Sep-29 19:33N 52°36' E 001°44'0 0.0
2014-Sep-29 18:33N 52°36' E 001°44'0 0.0
2014-Sep-29 17:33N 52°36' E 001°44'0 0.0
2014-Sep-29 16:33N 52°36' E 001°44'0 0.0
2014-Sep-29 15:33N 52°36' E 001°44'0 0.0
2014-Sep-29 14:33N 52°36' E 001°44'0 0.0
2014-Sep-29 13:33N 52°36' E 001°44'0 0.0
2014-Sep-29 12:33N 52°36' E 001°44'0 0.0
2014-Sep-29 11:33N 52°36' E 001°44'0 0.0
2014-Sep-29 10:33N 52°36' E 001°44'0 0.0
2014-Sep-29 09:33N 52°36' E 001°44'0 0.0
2014-Sep-29 08:33N 52°36' E 001°44'0 0.0
2014-Sep-29 07:33N 52°36' E 001°44'0 0.0
2014-Sep-29 06:33N 52°36' E 001°44'0 0.0
2014-Sep-29 05:33N 52°36' E 001°44'0 0.0
2014-Sep-29 04:33N 52°36' E 001°44'0 0.0
2014-Sep-29 03:33N 52°36' E 001°44'0 0.0
2014-Sep-29 02:33N 52°36' E 001°44'0 0.0
2014-Sep-29 01:33N 52°36' E 001°44'0 0.0
2014-Sep-29 00:33N 52°36' E 001°44'0 0.0
2014-Sep-28 23:33N 52°36' E 001°44'0 0.0
2014-Sep-28 22:33N 52°36' E 001°44'0 0.0
2014-Sep-28 21:33N 52°36' E 001°44'0 0.0
2014-Sep-28 20:33N 52°36' E 001°44'1 1.2
2014-Sep-28 19:34N 52°35' E 001°44'6 5.9
2014-Sep-28 18:33N 52°40' E 001°46'9 9.3
2014-Sep-28 17:33N 52°48' E 001°54'10 9.8
2014-Sep-28 16:33N 52°55' E 002°05'9 8.8
2014-Sep-28 15:34N 53°03' E 002°14'0 0.4
2014-Sep-28 14:33N 53°02' E 002°14'2 1.6
2014-Sep-28 13:34N 53°01' E 002°14'1 1.1
2014-Sep-28 12:33N 53°02' E 002°14'1 1.3
2014-Sep-28 11:33N 53°00' E 002°14'8 7.6
2014-Sep-28 10:34N 53°02' E 002°26'5 5.1
2014-Sep-28 09:34N 53°05' E 002°33'0 0.0
2014-Sep-28 08:33N 53°05' E 002°33'0 0.4
2014-Sep-28 07:33N 53°05' E 002°33'2 1.6
2014-Sep-28 06:15N 53°04' E 002°29'1 2.1
2014-Sep-28 05:34N 53°03' E 002°28'1 1.4
2014-Sep-28 04:33N 53°04' E 002°29'0 0.2
2014-Sep-28 03:33N 53°04' E 002°30'0 0.1
2014-Sep-28 02:34N 53°04' E 002°30'0 0.4
2014-Sep-28 01:33N 53°04' E 002°30'1 1.1
2014-Sep-28 00:34N 53°03' E 002°29'7 7.5
2014-Sep-27 23:33N 52°60' E 002°18'4 3.8
2014-Sep-27 22:33N 53°03' E 002°14'0 0.0
2014-Sep-27 21:34N 53°03' E 002°14'0 0.0
2014-Sep-27 20:33N 53°03' E 002°14'1 0.8
2014-Sep-27 19:30N 53°02' E 002°14'2 2.2
2014-Sep-27 18:29N 53°00' E 002°14'0 0.5
2014-Sep-27 17:33N 53°00' E 002°14'3 2.6
2014-Sep-27 16:33N 53°02' E 002°10'2 1.7
2014-Sep-27 15:33N 53°02' E 002°07'1 1.4
2014-Sep-27 14:34N 53°02' E 002°09'1 1.1
2014-Sep-27 13:34N 53°02' E 002°11'2 1.8
2014-Sep-27 12:34N 53°04' E 002°13'4 3.6
2014-Sep-27 11:33N 53°00' E 002°14'11 8.6
2014-Sep-27 10:19N 53°04' E 002°30'2 2.1
2014-Sep-27 09:28N 53°05' E 002°33'0 0.0
2014-Sep-27 08:17N 53°05' E 002°33'0 0.4
2014-Sep-27 07:28N 53°05' E 002°32'1 0.9
2014-Sep-27 06:30N 53°06' E 002°32'2 1.3
2014-Sep-27 05:20N 53°04' E 002°31'6 8.1
2014-Sep-27 04:33N 53°00' E 002°23'5 5.4
2014-Sep-27 03:33N 52°60' E 002°14'0 0.3
2014-Sep-27 02:33N 53°00' E 002°14'1 0.5
2014-Sep-27 01:29N 53°01' E 002°14'1 1.1
2014-Sep-27 00:34N 53°02' E 002°14'1 1.3
2014-Sep-26 23:34N 53°03' E 002°14'0 0.0
2014-Sep-26 22:33N 53°03' E 002°14'0 0.0
2014-Sep-26 21:31N 53°03' E 002°14'0 0.0
2014-Sep-26 20:21N 53°03' E 002°14'0 0.0
2014-Sep-26 19:33N 53°03' E 002°14'1 0.3
2014-Sep-26 16:06N 53°02' E 002°14'0 0.8
2014-Sep-26 15:33N 53°02' E 002°14'1 1.1
2014-Sep-26 14:33N 53°01' E 002°14'1 0.7
2014-Sep-26 13:33N 53°01' E 002°14'1 1.3
2014-Sep-26 12:33N 53°03' E 002°15'1 1.1
2014-Sep-26 11:33N 53°04' E 002°15'2 0.3
2014-Sep-26 05:29N 53°02' E 002°14'0 0.0
2014-Sep-26 02:32N 53°02' E 002°14'10 5.2
2014-Sep-26 00:33N 52°54' E 002°03'10 9.8
2014-Sep-25 23:34N 52°47' E 001°53'9 9.1
2014-Sep-25 22:34N 52°39' E 001°46'3 3.4
2014-Sep-25 21:33N 52°35' E 001°44'0 0.0
2014-Sep-25 20:33N 52°35' E 001°44'0 0.0
2014-Sep-25 19:33N 52°35' E 001°44'0 0.0
2014-Sep-25 18:33N 52°35' E 001°44'0 0.0
2014-Sep-25 17:33N 52°35' E 001°44'1 1.3
2014-Sep-25 16:33N 52°35' E 001°45'4 4.0
2014-Sep-25 15:33N 52°39' E 001°46'7 6.8
2014-Sep-25 14:33N 52°45' E 001°44'8 7.6
2014-Sep-25 13:33N 52°52' E 001°38'8 7.7
2014-Sep-25 12:33N 52°58' E 001°31'8 7.5
2014-Sep-25 11:33N 53°06' E 001°28'10 0.3
2014-Sep-24 04:11N 53°16' E 001°29'5 8.7
2014-Sep-24 03:33N 53°10' E 001°28'9 8.9
2014-Sep-24 02:33N 53°01' E 001°29'9 9.0
2014-Sep-24 01:33N 52°54' E 001°37'10 9.7
2014-Sep-24 00:33N 52°45' E 001°45'1110.8
2014-Sep-23 23:34N 52°35' E 001°46'2 1.5
2014-Sep-23 22:33N 52°36' E 001°44'0 0.0
2014-Sep-23 21:33N 52°36' E 001°44'0 0.0
2014-Sep-23 20:33N 52°36' E 001°44'0 0.0
2014-Sep-23 19:33N 52°36' E 001°44'0 0.0
2014-Sep-23 18:33N 52°36' E 001°44'0 0.0
2014-Sep-23 17:33N 52°36' E 001°44'0 0.0
2014-Sep-23 16:33N 52°36' E 001°44'0 0.0
2014-Sep-23 15:33N 52°36' E 001°44'0 0.0
2014-Sep-23 14:33N 52°36' E 001°44'1 1.0
2014-Sep-23 13:33N 52°35' E 001°44'5 4.6
2014-Sep-23 12:33N 52°39' E 001°46'8 7.8
2014-Sep-23 11:33N 52°46' E 001°52'10 9.6
2014-Sep-23 10:33N 52°54' E 002°01'12 9.3
2014-Sep-23 09:19N 53°02' E 002°14'1 1.4
2014-Sep-23 08:33N 53°03' E 002°14'0 0.0
2014-Sep-23 07:33N 53°03' E 002°14'0 0.0
2014-Sep-23 06:29N 53°03' E 002°14'0 0.3
2014-Sep-23 05:13N 53°03' E 002°14'1 1.5
2014-Sep-23 04:31N 53°02' E 002°14'1 0.8
2014-Sep-23 03:31N 53°02' E 002°14'3 2.3
2014-Sep-23 02:23N 52°60' E 002°14'1 0.8
2014-Sep-23 01:31N 53°00' E 002°14'1 0.9
2014-Sep-23 00:33N 53°01' E 002°14'  
2014-Sep-20 18:03N 53°03' E 002°14'0 0.0
2014-Sep-20 17:27N 53°03' E 002°14'0 0.0
2014-Sep-20 16:33N 53°03' E 002°14'1 0.5
2014-Sep-20 14:24N 53°02' E 002°15'0 0.3
2014-Sep-20 13:33N 53°02' E 002°14'  

Dump ship's entire track history